createdAt,value
2022-08-27T00:00:49.456Z,10.80
2022-08-27T00:03:16.561Z,10.95
2022-08-27T00:05:44.113Z,4.00
2022-08-27T00:08:12.690Z,8.13
2022-08-27T00:10:40.629Z,6.10
2022-08-27T00:13:07.758Z,5.95
2022-08-27T00:15:34.587Z,5.07
2022-08-27T00:18:01.253Z,3.80
2022-08-27T00:20:28.357Z,7.60
2022-08-27T00:22:55.032Z,5.13
2022-08-27T00:25:22.105Z,7.57
2022-08-27T00:27:48.798Z,8.25
2022-08-27T00:30:18.351Z,7.90
2022-08-27T00:32:45.586Z,7.47
2022-08-27T00:35:14.132Z,7.57
2022-08-27T00:37:41.115Z,5.85
2022-08-27T00:40:10.845Z,7.22
2022-08-27T00:42:37.855Z,4.97
2022-08-27T00:45:06.694Z,4.18
2022-08-27T00:47:40.561Z,6.28
2022-08-27T00:50:16.587Z,7.93
2022-08-27T00:52:46.188Z,11.50
2022-08-27T00:55:18.742Z,6.03
2022-08-27T00:57:52.484Z,5.40
2022-08-27T01:00:20.306Z,7.13
2022-08-27T01:02:47.849Z,6.38
2022-08-27T01:05:20.501Z,6.78
2022-08-27T01:07:50.664Z,6.82
2022-08-27T01:10:21.888Z,8.05
2022-08-27T01:15:23.312Z,4.15
2022-08-27T01:17:50.997Z,6.82
2022-08-27T01:20:24.725Z,7.93
2022-08-27T01:22:55.720Z,5.57
2022-08-27T01:25:23.910Z,5.70
2022-08-27T01:27:52.199Z,5.95
2022-08-27T01:30:21.688Z,9.80
2022-08-27T01:32:48.765Z,4.88
2022-08-27T01:35:16.518Z,9.15
2022-08-27T01:37:47.633Z,12.25
2022-08-27T01:40:16.677Z,6.07
2022-08-27T01:42:48.537Z,4.63
2022-08-27T01:45:20.543Z,4.45
2022-08-27T01:47:47.624Z,4.35
2022-08-27T01:50:24.509Z,3.17
2022-08-27T01:52:52.338Z,5.95
2022-08-27T01:55:22.607Z,4.15
2022-08-27T01:57:49.729Z,3.13
2022-08-27T02:00:25.268Z,1.65
2022-08-27T02:02:51.958Z,2.38
2022-08-27T02:05:19.517Z,2.33
2022-08-27T02:07:46.264Z,2.70
2022-08-27T02:10:18.105Z,1.83
2022-08-27T02:12:45.067Z,3.03
2022-08-27T02:15:12.413Z,2.15
2022-08-27T02:17:39.963Z,3.60
2022-08-27T02:20:09.031Z,1.85
2022-08-27T02:22:35.729Z,3.53
2022-08-27T02:25:02.633Z,1.25
2022-08-27T02:27:29.388Z,1.50
2022-08-27T02:29:56.029Z,3.17
2022-08-27T02:32:32.211Z,1.20
2022-08-27T02:34:59.625Z,1.63
2022-08-27T02:37:26.373Z,1.77
2022-08-27T02:39:53.093Z,3.38
2022-08-27T02:42:19.760Z,0.93
2022-08-27T02:44:47.207Z,1.63
2022-08-27T02:47:14.442Z,1.13
2022-08-27T02:49:41.271Z,1.10
2022-08-27T02:52:07.880Z,1.05
2022-08-27T02:54:34.520Z,1.00
2022-08-27T02:57:01.201Z,2.03
2022-08-27T02:59:27.864Z,3.47
2022-08-27T03:01:54.625Z,1.63
2022-08-27T03:04:22.762Z,1.88
2022-08-27T03:06:49.493Z,0.80
2022-08-27T03:09:16.120Z,1.17
2022-08-27T03:11:42.733Z,2.10
2022-08-27T03:14:09.420Z,1.48
2022-08-27T03:16:37.494Z,2.38
2022-08-27T03:19:06.763Z,1.65
2022-08-27T03:21:35.137Z,2.15
2022-08-27T03:24:11.643Z,1.17
2022-08-27T03:26:41.364Z,1.55
2022-08-27T03:29:07.973Z,1.25
2022-08-27T03:31:34.776Z,1.27
2022-08-27T03:34:06.781Z,3.05
2022-08-27T03:36:33.493Z,1.70
2022-08-27T03:39:00.158Z,2.13
2022-08-27T03:41:43.777Z,1.77
2022-08-27T03:44:21.368Z,1.85
2022-08-27T03:46:49.565Z,2.85
2022-08-27T03:49:20.611Z,1.58
2022-08-27T03:51:49.247Z,2.30
2022-08-27T03:54:16.009Z,2.00
2022-08-27T03:56:42.604Z,2.15
2022-08-27T03:59:09.226Z,2.80
2022-08-27T04:01:36.038Z,1.80
2022-08-27T04:04:03.367Z,1.38
2022-08-27T04:06:30.186Z,2.00
2022-08-27T04:08:56.833Z,1.83
2022-08-27T04:11:23.956Z,3.22
2022-08-27T04:13:51.380Z,2.10
2022-08-27T04:16:18.085Z,2.47
2022-08-27T04:18:44.785Z,1.50
2022-08-27T04:21:13.656Z,2.08
2022-08-27T04:23:41.825Z,2.38
2022-08-27T04:26:09.729Z,2.05
2022-08-27T04:28:38.628Z,2.05
2022-08-27T04:31:06.293Z,2.30
2022-08-27T04:33:35.730Z,2.28
2022-08-27T04:36:06.112Z,2.63
2022-08-27T04:38:33.512Z,2.38
2022-08-27T04:41:27.461Z,2.53
2022-08-27T04:43:56.987Z,2.25
2022-08-27T04:46:26.611Z,3.00
2022-08-27T04:48:53.529Z,2.47
2022-08-27T04:51:20.917Z,2.83
2022-08-27T04:53:49.934Z,2.58
2022-08-27T04:56:19.186Z,3.47
2022-08-27T04:58:45.796Z,1.80
2022-08-27T05:01:25.099Z,1.60
2022-08-27T05:03:53.011Z,2.00
2022-08-27T05:06:21.217Z,1.75
2022-08-27T05:08:50.108Z,1.85
2022-08-27T05:11:19.367Z,2.35
2022-08-27T05:13:47.529Z,2.35
2022-08-27T05:16:20.850Z,1.90
2022-08-27T05:18:50.157Z,1.95
2022-08-27T05:21:18.545Z,2.63
2022-08-27T05:23:45.188Z,2.70
2022-08-27T05:26:12.205Z,2.45
2022-08-27T05:28:39.007Z,2.30
2022-08-27T05:31:08.681Z,2.63
2022-08-27T05:33:37.333Z,2.25
2022-08-27T05:36:05.166Z,4.00
2022-08-27T05:38:32.427Z,2.22
2022-08-27T05:41:09.057Z,1.98
2022-08-27T05:43:37.188Z,2.00
2022-08-27T05:46:10.020Z,1.77
2022-08-27T05:48:37.474Z,1.38
2022-08-27T05:51:41.452Z,2.38
2022-08-27T05:54:14.805Z,2.92
2022-08-27T05:56:42.264Z,1.50
2022-08-27T05:59:27.735Z,1.35
2022-08-27T06:01:56.142Z,2.83
2022-08-27T06:04:24.394Z,5.03
2022-08-27T06:06:51.828Z,2.72
2022-08-27T06:09:22.208Z,2.80
2022-08-27T06:11:49.284Z,2.53
2022-08-27T06:14:15.914Z,1.90
2022-08-27T06:16:42.706Z,1.05
2022-08-27T06:19:12.082Z,1.85
2022-08-27T06:21:40.099Z,1.88
2022-08-27T06:24:07.770Z,1.65
2022-08-27T06:26:34.995Z,2.05
2022-08-27T06:29:06.800Z,2.03
2022-08-27T06:31:35.449Z,2.55
2022-08-27T06:34:07.463Z,1.33
2022-08-27T06:36:37.194Z,2.67
2022-08-27T06:39:04.455Z,2.78
2022-08-27T06:41:32.576Z,2.17
2022-08-27T06:43:59.218Z,2.63
2022-08-27T06:46:29.467Z,1.30
2022-08-27T06:48:58.707Z,1.85
2022-08-27T06:51:28.783Z,1.88
2022-08-27T06:53:57.396Z,1.83
2022-08-27T06:56:24.295Z,2.03
2022-08-27T06:58:59.605Z,1.17
2022-08-27T07:01:30.372Z,1.70
2022-08-27T07:04:02.657Z,2.00
2022-08-27T07:06:31.754Z,1.90
2022-08-27T07:08:59.127Z,2.60
2022-08-27T07:11:27.517Z,1.75
2022-08-27T07:13:54.794Z,2.17
2022-08-27T07:16:24.515Z,3.42
2022-08-27T07:18:53.283Z,2.65
2022-08-27T07:21:20.930Z,2.58
2022-08-27T07:23:49.163Z,2.63
2022-08-27T07:26:16.821Z,2.58
2022-08-27T07:28:44.844Z,2.20
2022-08-27T07:31:13.937Z,3.55
2022-08-27T07:33:42.144Z,2.67
2022-08-27T07:36:18.499Z,1.90
2022-08-27T07:38:48.439Z,2.13
2022-08-27T07:41:24.931Z,5.00
2022-08-27T07:44:16.840Z,2.45
2022-08-27T07:46:47.903Z,3.40
2022-08-27T07:49:15.460Z,1.83
2022-08-27T07:51:42.094Z,5.13
2022-08-27T07:54:08.976Z,3.45
2022-08-27T07:56:35.609Z,3.20
2022-08-27T07:59:02.434Z,2.40
2022-08-27T08:01:29.722Z,3.03
2022-08-27T08:03:56.956Z,3.58
2022-08-27T08:06:23.726Z,4.70
2022-08-27T08:08:50.394Z,3.58
2022-08-27T08:11:18.424Z,3.60
2022-08-27T08:13:46.490Z,3.50
2022-08-27T08:16:13.562Z,4.78
2022-08-27T08:18:40.701Z,3.28
2022-08-27T08:21:12.301Z,4.25
2022-08-27T08:23:39.485Z,3.00
2022-08-27T08:26:07.363Z,8.80
2022-08-27T08:28:34.384Z,19.55
2022-08-27T08:31:01.606Z,9.82
2022-08-27T08:33:28.674Z,5.68
2022-08-27T08:35:55.358Z,3.03
2022-08-27T08:38:22.088Z,3.30
2022-08-27T08:40:54.470Z,5.00
2022-08-27T08:43:35.816Z,3.83
2022-08-27T08:46:34.744Z,6.68
2022-08-27T08:49:10.455Z,5.70
2022-08-27T08:51:42.103Z,5.50
2022-08-27T08:56:55.269Z,3.90
2022-08-27T08:59:36.152Z,3.00
2022-08-27T09:02:02.823Z,3.95
2022-08-27T09:04:30.044Z,3.70
2022-08-27T09:07:10.097Z,3.75
2022-08-27T09:09:45.825Z,4.13
2022-08-27T09:12:19.235Z,4.53
2022-08-27T09:15:14.132Z,5.07
2022-08-27T09:17:42.124Z,2.92
2022-08-27T09:20:13.255Z,4.28
2022-08-27T09:22:51.345Z,3.78
2022-08-27T09:25:28.058Z,5.05
2022-08-27T09:28:01.077Z,4.65
2022-08-27T09:30:32.237Z,4.25
2022-08-27T09:33:01.777Z,2.75
2022-08-27T09:35:44.760Z,3.15
2022-08-27T09:38:19.523Z,4.43
2022-08-27T09:40:50.518Z,7.13
2022-08-27T09:43:17.190Z,5.68
2022-08-27T09:45:49.080Z,3.38
2022-08-27T09:48:20.843Z,3.08
2022-08-27T09:50:56.871Z,3.35
2022-08-27T09:53:44.576Z,3.53
2022-08-27T09:56:25.387Z,4.38
2022-08-27T09:59:02.754Z,5.05
2022-08-27T10:01:32.817Z,3.88
2022-08-27T10:04:10.059Z,3.93
2022-08-27T10:06:37.712Z,4.75
2022-08-27T10:09:33.217Z,7.00
2022-08-27T10:12:07.571Z,5.00
2022-08-27T10:14:40.732Z,4.30
2022-08-27T10:17:21.439Z,4.38
2022-08-27T10:20:08.456Z,5.00
2022-08-27T10:22:44.648Z,3.45
2022-08-27T10:25:23.603Z,3.45
2022-08-27T10:28:05.730Z,4.45
2022-08-27T10:31:01.276Z,5.75
2022-08-27T10:33:52.320Z,4.63
2022-08-27T10:39:35.978Z,4.03
2022-08-27T10:42:30.335Z,3.78
2022-08-27T10:45:11.781Z,6.82
2022-08-27T10:48:06.233Z,3.67
2022-08-27T10:51:01.059Z,5.20
2022-08-27T10:53:41.988Z,2.95
2022-08-27T10:56:37.892Z,4.28
2022-08-27T10:59:19.875Z,5.25
2022-08-27T11:02:08.302Z,4.13
2022-08-27T11:04:54.901Z,3.35
2022-08-27T11:07:27.592Z,4.32
2022-08-27T11:10:06.244Z,2.22
2022-08-27T11:12:44.531Z,3.83
2022-08-27T11:15:17.709Z,2.25
2022-08-27T11:17:50.461Z,2.35
2022-08-27T11:20:25.278Z,4.53
2022-08-27T11:23:08.063Z,3.20
2022-08-27T11:25:50.976Z,4.78
2022-08-27T11:28:30.196Z,3.85
2022-08-27T11:31:21.484Z,3.50
2022-08-27T11:34:16.068Z,6.00
2022-08-27T11:37:03.970Z,3.33
2022-08-27T11:40:08.279Z,3.72
2022-08-27T11:42:38.984Z,4.28
2022-08-27T11:45:29.734Z,2.28
2022-08-27T11:48:24.317Z,2.70
2022-08-27T11:50:57.362Z,3.45
2022-08-27T11:53:28.829Z,2.80
2022-08-27T11:55:56.185Z,2.80
2022-08-27T11:58:29.749Z,2.67
2022-08-27T12:01:03.801Z,2.75
2022-08-27T12:03:35.405Z,2.63
2022-08-27T12:06:18.535Z,3.53
2022-08-27T12:08:45.524Z,3.10
2022-08-27T12:11:44.274Z,3.58
2022-08-27T12:14:29.238Z,2.83
2022-08-27T12:17:08.226Z,3.55
2022-08-27T12:20:07.789Z,2.88
2022-08-27T12:23:02.290Z,4.53
2022-08-27T12:25:29.294Z,3.42
2022-08-27T12:28:05.352Z,5.10
2022-08-27T12:30:36.331Z,2.85
2022-08-27T12:33:14.791Z,2.25
2022-08-27T12:35:50.594Z,2.38
2022-08-27T12:38:50.865Z,3.17
2022-08-27T12:41:31.936Z,2.92
2022-08-27T12:44:04.852Z,4.15
2022-08-27T12:46:31.918Z,3.55
2022-08-27T12:49:35.900Z,2.95
2022-08-27T12:51:48.861Z,4.82
2022-08-27T12:54:36.980Z,3.35
2022-08-27T12:57:24.402Z,4.22
2022-08-27T13:00:05.355Z,4.28
2022-08-27T13:02:58.472Z,2.92
2022-08-27T13:05:25.153Z,2.25
2022-08-27T13:07:53.629Z,3.33
2022-08-27T13:10:32.456Z,3.30
2022-08-27T13:13:12.188Z,2.35
2022-08-27T13:15:46.357Z,4.55
2022-08-27T13:18:13.430Z,3.10
2022-08-27T13:20:40.900Z,5.13
2022-08-27T13:23:20.385Z,6.88
2022-08-27T13:26:03.754Z,3.05
2022-08-27T13:28:31.514Z,4.55
2022-08-27T13:31:00.028Z,2.90
2022-08-27T13:33:31.294Z,2.35
2022-08-27T13:35:59.027Z,3.55
2022-08-27T13:38:28.894Z,3.60
2022-08-27T13:40:59.169Z,4.07
2022-08-27T13:43:37.461Z,3.58
2022-08-27T13:46:12.351Z,3.55
2022-08-27T13:48:44.532Z,2.20
2022-08-27T13:51:13.688Z,2.08
2022-08-27T13:54:06.446Z,4.15
2022-08-27T13:56:37.246Z,5.40
2022-08-27T13:59:19.007Z,1.90
2022-08-27T14:01:54.841Z,2.00
2022-08-27T14:04:25.421Z,1.90
2022-08-27T14:06:53.438Z,3.10
2022-08-27T14:09:23.142Z,3.33
2022-08-27T14:12:05.434Z,2.07
2022-08-27T14:14:38.343Z,2.72
2022-08-27T14:17:08.744Z,2.88
2022-08-27T14:19:36.577Z,4.82
2022-08-27T14:22:04.644Z,4.22
2022-08-27T14:24:31.360Z,3.08
2022-08-27T14:27:07.790Z,1.75
2022-08-27T14:29:34.499Z,2.70
2022-08-27T14:32:01.275Z,4.78
2022-08-27T14:34:28.878Z,2.90
2022-08-27T14:36:55.569Z,1.35
2022-08-27T14:39:26.471Z,3.13
2022-08-27T14:41:53.426Z,2.35
2022-08-27T14:44:22.345Z,2.20
2022-08-27T14:46:49.537Z,2.35
2022-08-27T14:49:30.930Z,2.03
2022-08-27T14:51:58.091Z,3.58
2022-08-27T14:54:29.120Z,3.30
2022-08-27T14:57:02.194Z,3.72
2022-08-27T14:59:29.333Z,4.03
2022-08-27T15:01:58.231Z,1.83
2022-08-27T15:04:26.587Z,4.63
2022-08-27T15:06:55.074Z,2.17
2022-08-27T15:09:22.530Z,3.17
2022-08-27T15:11:51.155Z,1.95
2022-08-27T15:14:25.756Z,2.38
2022-08-27T15:16:53.452Z,2.20
2022-08-27T15:19:22.097Z,11.80
2022-08-27T15:21:50.423Z,3.65
2022-08-27T15:24:22.762Z,13.93
2022-08-27T15:26:50.760Z,3.75
2022-08-27T15:29:17.650Z,4.55
2022-08-27T15:31:45.015Z,4.00
2022-08-27T15:34:13.093Z,4.95
2022-08-27T15:36:40.964Z,4.40
2022-08-27T15:39:08.324Z,6.07
2022-08-27T15:41:50.836Z,4.50
2022-08-27T15:44:23.762Z,2.63
2022-08-27T15:46:51.276Z,3.78
2022-08-27T15:49:18.544Z,3.92
2022-08-27T15:51:45.581Z,3.17
2022-08-27T15:54:12.790Z,3.30
2022-08-27T15:56:39.956Z,2.92
2022-08-27T15:59:07.603Z,5.32
2022-08-27T16:01:37.193Z,3.72
2022-08-27T16:04:06.078Z,6.18
2022-08-27T16:06:34.814Z,2.30
2022-08-27T16:09:01.895Z,3.20
2022-08-27T16:11:28.626Z,7.13
2022-08-27T16:13:56.231Z,3.15
2022-08-27T16:16:26.425Z,5.38
2022-08-27T16:18:53.897Z,2.97
2022-08-27T16:21:20.928Z,5.07
2022-08-27T16:23:47.892Z,3.13
2022-08-27T16:26:16.790Z,6.53
2022-08-27T16:28:44.465Z,4.78
2022-08-27T16:31:13.670Z,4.32
2022-08-27T16:33:43.768Z,3.35
2022-08-27T16:36:11.186Z,3.75
2022-08-27T16:38:38.073Z,3.55
2022-08-27T16:41:05.864Z,4.95
2022-08-27T16:43:33.149Z,4.32
2022-08-27T16:46:01.618Z,3.95
2022-08-27T16:48:47.639Z,3.00
2022-08-27T16:51:32.671Z,4.15
2022-08-27T16:54:03.829Z,2.15
2022-08-27T16:56:33.858Z,4.60
2022-08-27T16:59:04.000Z,3.75
2022-08-27T17:01:31.805Z,4.70
2022-08-27T17:04:16.023Z,3.65
2022-08-27T17:06:51.521Z,2.95
2022-08-27T17:09:19.115Z,5.43
2022-08-27T17:11:50.676Z,3.65
2022-08-27T17:14:17.331Z,4.40
2022-08-27T17:16:43.978Z,3.63
2022-08-27T17:19:16.724Z,4.25
2022-08-27T17:21:45.074Z,3.40
2022-08-27T17:24:13.179Z,5.85
2022-08-27T17:26:40.468Z,4.70
2022-08-27T17:29:07.390Z,2.80
2022-08-27T17:31:40.385Z,3.22
2022-08-27T17:34:12.338Z,3.35
2022-08-27T17:36:38.986Z,4.88
2022-08-27T17:39:05.697Z,3.72
2022-08-27T17:41:34.145Z,4.63
2022-08-27T17:44:07.753Z,3.97
2022-08-27T17:46:34.388Z,4.80
2022-08-27T17:49:01.387Z,3.80
2022-08-27T17:51:28.565Z,3.78
2022-08-27T17:54:00.928Z,5.40
2022-08-27T17:56:29.486Z,3.17
2022-08-27T17:58:56.843Z,3.40
2022-08-27T18:01:28.390Z,4.05
2022-08-27T18:03:57.017Z,3.72
2022-08-27T18:06:24.879Z,4.65
2022-08-27T18:08:51.738Z,5.93
2022-08-27T18:11:19.083Z,2.85
2022-08-27T18:13:52.187Z,5.38
2022-08-27T18:16:19.812Z,2.83
2022-08-27T18:18:46.850Z,3.80
2022-08-27T18:21:13.773Z,3.55
2022-08-27T18:23:50.888Z,3.67
2022-08-27T18:26:20.381Z,4.80
2022-08-27T18:28:47.747Z,5.03
2022-08-27T18:31:17.690Z,3.80
2022-08-27T18:33:44.429Z,4.18
2022-08-27T18:36:11.230Z,5.43
2022-08-27T18:38:37.970Z,5.30
2022-08-27T18:41:08.504Z,4.47
2022-08-27T18:46:05.086Z,6.10
2022-08-27T18:48:32.430Z,6.10
2022-08-27T18:51:02.314Z,4.40
2022-08-27T18:53:32.191Z,4.50
2022-08-27T18:55:59.330Z,5.60
2022-08-27T18:58:26.655Z,5.07
2022-08-27T19:00:58.115Z,5.55
2022-08-27T19:03:32.447Z,8.80
2022-08-27T19:06:00.592Z,5.85
2022-08-27T19:08:28.293Z,4.53
2022-08-27T19:10:55.665Z,3.72
2022-08-27T19:13:22.897Z,4.80
2022-08-27T19:15:57.463Z,5.28
2022-08-27T19:18:26.875Z,4.80
2022-08-27T19:20:54.197Z,4.93
2022-08-27T19:23:22.404Z,6.15
2022-08-27T19:25:51.841Z,4.57
2022-08-27T19:28:23.804Z,6.55
2022-08-27T19:30:50.483Z,4.70
2022-08-27T19:33:17.408Z,5.00
2022-08-27T19:35:44.134Z,5.60
2022-08-27T19:38:12.982Z,5.28
2022-08-27T19:40:40.991Z,4.65
2022-08-27T19:43:08.056Z,5.45
2022-08-27T19:45:35.549Z,5.22
2022-08-27T19:48:08.309Z,5.47
2022-08-27T19:50:35.196Z,6.43
2022-08-27T19:53:01.979Z,5.65
2022-08-27T19:55:28.694Z,4.93
2022-08-27T19:57:55.472Z,3.88
2022-08-27T20:00:24.825Z,6.85
2022-08-27T20:02:54.834Z,6.50
2022-08-27T20:05:22.783Z,5.65
2022-08-27T20:07:52.393Z,5.22
2022-08-27T20:10:21.724Z,8.13
2022-08-27T20:12:49.058Z,4.65
2022-08-27T20:15:16.071Z,4.30
2022-08-27T20:17:43.937Z,5.22
2022-08-27T20:20:12.578Z,6.13
2022-08-27T20:22:40.340Z,7.45
2022-08-27T20:25:07.525Z,7.45
2022-08-27T20:27:34.962Z,6.03
2022-08-27T20:30:03.667Z,5.38
2022-08-27T20:32:31.084Z,7.55
2022-08-27T20:34:58.806Z,5.57
2022-08-27T20:37:25.848Z,5.55
2022-08-27T20:39:52.819Z,4.05
2022-08-27T20:42:20.248Z,4.88
2022-08-27T20:44:47.745Z,3.67
2022-08-27T20:47:15.900Z,3.83
2022-08-27T20:49:44.520Z,4.13
2022-08-27T20:52:12.841Z,4.97
2022-08-27T20:54:40.554Z,4.43
2022-08-27T20:57:08.758Z,2.72
2022-08-27T20:59:53.993Z,3.65
2022-08-27T21:02:24.072Z,5.32
2022-08-27T21:04:51.146Z,4.07
2022-08-27T21:07:19.394Z,3.85
2022-08-27T21:09:57.023Z,3.60
2022-08-27T21:12:29.457Z,3.70
2022-08-27T21:14:56.815Z,2.97
2022-08-27T21:17:27.014Z,3.55
2022-08-27T21:19:53.747Z,2.28
2022-08-27T21:22:21.114Z,2.05
2022-08-27T21:24:47.933Z,5.03
2022-08-27T21:27:15.986Z,3.38
2022-08-27T21:29:44.599Z,3.22
2022-08-27T21:32:11.713Z,2.72
2022-08-27T21:34:38.425Z,2.33
2022-08-27T21:37:05.291Z,2.20
2022-08-27T21:39:33.141Z,2.03
2022-08-27T21:42:01.601Z,2.15
2022-08-27T21:44:30.235Z,2.50
2022-08-27T21:46:58.033Z,2.53
2022-08-27T21:49:24.723Z,2.05
2022-08-27T21:51:51.508Z,2.97
2022-08-27T21:54:18.135Z,2.83
2022-08-27T21:56:45.434Z,3.17
2022-08-27T21:59:12.134Z,2.67
2022-08-27T22:01:39.344Z,2.80
2022-08-27T22:04:06.545Z,2.58
2022-08-27T22:06:33.176Z,1.90
2022-08-27T22:09:00.285Z,1.52
2022-08-27T22:11:28.073Z,2.13
2022-08-27T22:13:58.277Z,2.45
2022-08-27T22:16:25.164Z,2.65
2022-08-27T22:18:54.570Z,1.77
2022-08-27T22:21:22.127Z,2.00
2022-08-27T22:23:51.273Z,1.42
2022-08-27T22:26:18.959Z,1.30
2022-08-27T22:28:45.582Z,1.13
2022-08-27T22:31:12.263Z,0.68
2022-08-27T22:33:39.049Z,0.68
2022-08-27T22:36:05.964Z,1.05
2022-08-27T22:38:32.857Z,0.47
2022-08-27T22:40:59.740Z,0.52
2022-08-27T22:43:27.788Z,0.95
2022-08-27T22:45:54.498Z,1.40
2022-08-27T22:48:21.234Z,0.80
2022-08-27T22:50:47.877Z,0.20
2022-08-27T22:53:15.653Z,0.50
2022-08-27T22:55:45.641Z,1.77
2022-08-27T22:58:14.910Z,0.68
2022-08-27T23:00:45.197Z,1.83
2022-08-27T23:03:19.058Z,0.40
2022-08-27T23:05:46.113Z,0.73
2022-08-27T23:08:13.943Z,1.08
2022-08-27T23:10:42.598Z,0.35
2022-08-27T23:13:10.959Z,1.90
2022-08-27T23:15:38.652Z,0.90
2022-08-27T23:18:06.027Z,0.47
2022-08-27T23:20:33.049Z,0.60
2022-08-27T23:22:59.888Z,0.38
2022-08-27T23:25:47.288Z,2.70
2022-08-27T23:28:15.513Z,0.28
2022-08-27T23:30:43.498Z,0.57
2022-08-27T23:33:10.291Z,0.30
2022-08-27T23:35:37.167Z,0.60
2022-08-27T23:38:03.833Z,0.47
2022-08-27T23:40:30.531Z,0.77
2022-08-27T23:42:57.269Z,0.20
2022-08-27T23:45:25.659Z,0.30
2022-08-27T23:47:52.287Z,0.80
2022-08-27T23:50:19.603Z,0.43
2022-08-27T23:52:46.243Z,0.47
2022-08-27T23:55:13.218Z,1.75
2022-08-27T23:57:40.547Z,1.25
